x

Nantucket Sound (44020) Wave Buoy

11:50am - Thu 26th May 2016 All times are EDT. -4 hours from GMT.

  • Sig Wave height 0.7ft
  • Average Period 3s
  • Wind
    7mph, 9mph gusts
  • Sea Temp 57°f
  • Air Temp 60°f
  • Sea Pressure 1019.1mb
  • Nantucket Sound
  • Nantucket Sound

More Historic Weather Station data

Upgrade to MSW Pro to gain access to the past 30 days of data for over 8000 Wavebouys and Weather Stations around the globe.

Join Pro

Comparision Forecast

View Surf forecast
   
Thu 05/26 11:50am 0.7ft  -  3s 7 9 mph 1019.1mb 57f 60f
10:50am 0.7ft  -  3s 4 7 mph 1019.1mb 58f 62f
9:50am 0.7ft  -  4s 4
mph
1019.2mb 57f 62f
8:50am 0.7ft  -  4s 4 7 mph 1019mb 55f 61f
7:50am 0.7ft  -  4s 4 7 mph 1019mb 55f 60f
6:50am 0.7ft  -  4s 7
mph
1018.3mb 55f 61f
5:50am 0.7ft  -  4s 4 7 mph 1018mb 55f 60f
4:50am 1ft 3s 4s 4
mph
1017.3mb 55f 59f
3:50am 1ft 3s 4s 7 9 mph 1016.8mb 57f 60f
2:50am 1.3ft 9s 4s 13
mph
1016.1mb 57f 61f
1:50am 1.3ft 8s 3s 11
mph
1015.6mb 56f 60f
12:50am 1.3ft 3s 3s 13 16 mph 1015.7mb 56f 60f
Wed 05/25 11:50pm 1.3ft 3s 3s 13 16 mph 1016mb 56f 60f
10:50pm 1.6ft 3s 3s 13 16 mph 1016mb 56f 61f
9:50pm 1.6ft 3s 3s 18 22 mph 1015.8mb 55f 62f
8:50pm 1.3ft 3s 3s 18 20 mph 1015.3mb 55f 61f
7:50pm 1.3ft 3s 3s 16 18 mph 1015.2mb 55f 61f
6:50pm 1ft 3s 3s 13 16 mph 1015.2mb 55f 60f
5:50pm 1.3ft 3s 3s 16 18 mph 1015.1mb 55f 59f
4:50pm 1.6ft 3s 3s 16 18 mph 1015.3mb 56f 59f
3:50pm 1.6ft 3s 3s 16 18 mph 1015.3mb 57f 58f
2:50pm 1.6ft 3s 3s 16 18 mph 1015.6mb 57f 57f
1:50pm 1.3ft 3s 3s 13 16 mph 1016mb 57f 55f
12:50pm 1ft 2s 3s 16 18 mph 1016.4mb 56f 56f
11:50am 0.7ft  -  4s 9 11 mph 1016.8mb 56f 56f
10:50am 0.7ft  -  4s 4 7 mph 1017mb 55f 56f
9:50am 1ft 5s 4s  -  2 mph 1017.1mb 55f 55f
8:50am 1ft 8s 3s 4
mph
1017.1mb 54f 55f
7:50am 1ft 8s 3s 7 9 mph 1016.7mb 54f 54f
6:50am 1ft 9s 4s 11 13 mph 1016.7mb 54f 53f
5:50am 1ft 8s 4s 11 13 mph 1016.3mb 54f 53f
4:50am 1.3ft 3s 4s 11 13 mph 1015.2mb 54f 53f
3:50am 1.3ft 3s 4s 9 11 mph 1014.8mb 55f 55f
2:50am 1.6ft 3s 4s 13 16 mph 1014.5mb 56f 55f
1:50am 1.6ft 3s 3s 13 18 mph 1013.8mb 56f 54f
12:50am 1.3ft 3s 3s 16 18 mph 1013.8mb 56f 54f
Tue 05/24 11:50pm 1ft 4s 4s 18
mph
1013.7mb 55f 54f
10:50pm 1ft 5s 4s 4 7 mph 1013.8mb 55f 54f
9:50pm 1ft 5s 4s 9 11 mph 1013.5mb 55f 53f
8:50pm 1ft 5s 4s 2 4 mph 1012.7mb 54f 53f
7:50pm 1.3ft 9s 4s 2 4 mph 1012.3mb 54f 53f
6:50pm 1.3ft 10s 4s 7 9 mph 1012.1mb 54f 54f
5:50pm 1.3ft 3s 3s 9 11 mph 1011.8mb 54f 54f
4:50pm 1.3ft 5s 3s 9 11 mph 1011.9mb 55f 55f
3:50pm 1.6ft 8s 4s 11 13 mph 1012mb 56f 56f
2:50pm 1.6ft 8s 4s 13 16 mph 1011.8mb 56f 56f
1:50pm 1.6ft 8s 4s 7 11 mph 1012mb 56f 56f
12:50pm 1.3ft 4s 4s 9 13 mph 1012.3mb 56f 54f
11:50am 1.3ft 3s 3s 11 13 mph 1012.1mb 56f 54f
10:50am 1.3ft 3s 3s 13 16 mph 1011.8mb 55f 54f
9:50am 1.3ft 3s 4s 13 16 mph 1011.2mb 54f 55f
8:50am 1.3ft 4s 4s 9 11 mph 1010.9mb 53f 53f
7:50am 2ft 4s 3s 16 18 mph 1010.8mb 53f 52f
6:50am 2ft 3s 3s 18 20 mph 1011mb 53f 52f
5:50am 2ft 3s 3s 18 20 mph 1010.7mb 53f 52f
4:50am 2ft 3s 3s 16 18 mph 1010.5mb 54f 52f
3:50am 1.6ft 10s 3s 20 22 mph 1010.4mb 55f 52f
2:50am 1.6ft 10s 4s 16 20 mph 1010.8mb 56f 52f
1:50am 1.6ft 9s 4s 13 16 mph 1011.2mb 56f 52f
12:50am 1.6ft 9s 4s 9 11 mph 1011.7mb 56f 51f
Mon 05/23 11:50pm 1.3ft 7s 4s 9 11 mph 1011.9mb 56f 51f
10:50pm 1ft 6s 4s 13
mph
1011.4mb 56f 52f
9:50pm 1ft 5s 4s 9 11 mph 1011.9mb 55f 54f
8:50pm 1ft 5s 4s 11
mph
1011mb 55f 54f
7:50pm 1.3ft 3s 4s 9 11 mph 1011.9mb 54f 54f
6:50pm 1.6ft 3s 4s 9
mph
1012mb 54f 53f
5:50pm 2ft 3s 4s 13 16 mph 1011.6mb 54f 54f
4:50pm 1.6ft 8s 3s 18 20 mph 1011.9mb 55f 56f
3:50pm 1.6ft 8s 4s 13 16 mph 1011.7mb 56f 57f
2:50pm 2ft 4s 4s  -  mph 1011.9mb 57f 60f
1:50pm 1.6ft 4s 4s 9 11 mph 1011.6mb 57f 60f
12:50pm 1.3ft 4s 5s 4 7 mph 1012.2mb 56f 60f
11:50am 1ft 9s 5s 7
mph
1012.4mb 56f 59f
10:50am 1ft 5s 4s 7 9 mph 1012.2mb 55f 58f
9:50am 1ft 4s 4s 4
mph
1012.6mb 55f 57f
8:50am 1ft 5s 4s 7
mph
1012.9mb 54f 56f
7:50am 1.3ft 5s 4s 9
mph
1012.7mb 53f 55f
6:50am 1.3ft 5s  -  9 11 mph 1012.3mb 53f 55f
5:50am 1.6ft 4s 4s 9 11 mph 1012.1mb 53f 54f
4:50am 2ft 9s 4s 9 11 mph 1011.7mb 53f 55f
3:50am 2ft 8s 4s 9 11 mph 1011.3mb 54f 55f
2:50am 2.5ft 4s 4s 9
mph
1011.3mb 55f 55f
1:50am 2ft 7s 4s 9
mph
1011.6mb 55f 55f
12:50am 2ft 4s 4s 9 11 mph 1011.6mb 55f 55f
Sun 05/22 11:50pm 1.6ft 6s 4s 13 16 mph 1011.6mb 55f 55f
10:50pm 1.3ft 8s 4s 11
mph
1011.8mb 55f 55f
9:50pm 1.3ft 5s 4s 11 13 mph 1011.8mb 55f 55f
8:50pm 1.6ft 5s 4s 7 9 mph 1011.2mb 55f 55f
7:50pm 2ft 3s 4s 4 7 mph 1010.5mb 54f 56f
6:50pm 2ft 3s 4s 11 13 mph 1009.7mb 54f 56f
5:50pm 2.5ft 4s 4s 13 18 mph 1008.9mb 53f 54f